Time;durP1;ratioP1;P1;durP2;ratioP2;P2;SDS_P1;SDS_P2;PMS_P1;PMS_P2;Temp;Humidity;BMP_temperature;BMP_pressure;BME280_temperature;BME280_humidity;BME280_pressure;Samples;Min_cycle;Max_cycle;Signal;HPM_P1;HPM_P2
2023/04/07 00:01:41;;;;;;;36.75;21.10;;;7.20;99.90;;;;;;5105672;27;20502;-80
2023/04/07 00:04:27;;;;;;;36.13;21.80;;;7.10;99.90;;;;;;5102013;27;20051;-79
2023/04/07 00:07:13;;;;;;;35.47;20.98;;;7.10;99.90;;;;;;5116532;27;20058;-79
2023/04/07 00:10:00;;;;;;;41.50;24.23;;;7.10;99.90;;;;;;5115725;27;20051;-81
2023/04/07 00:12:46;;;;;;;34.40;21.58;;;7.20;99.90;;;;;;5133615;27;20039;-79
2023/04/07 00:15:32;;;;;;;35.15;21.98;;;7.10;99.90;;;;;;5133107;27;20383;-80
2023/04/07 00:18:18;;;;;;;38.67;22.98;;;7.10;99.90;;;;;;5117940;27;20120;-80
2023/04/07 00:21:04;;;;;;;35.92;22.90;;;7.20;99.90;;;;;;5133185;27;20039;-79
2023/04/07 00:23:51;;;;;;;37.35;23.02;;;7.10;99.90;;;;;;5134238;27;20440;-78
2023/04/07 00:26:37;;;;;;;36.80;23.00;;;7.10;99.90;;;;;;5133118;27;20054;-79
2023/04/07 00:29:23;;;;;;;38.22;22.48;;;7.10;99.90;;;;;;5133192;27;20047;-81
2023/04/07 00:32:09;;;;;;;41.85;23.88;;;7.10;99.90;;;;;;5134068;27;20077;-78
2023/04/07 00:34:55;;;;;;;40.42;23.92;;;7.10;99.90;;;;;;5119900;27;20043;-78
2023/04/07 00:37:42;;;;;;;39.40;23.50;;;7.10;99.90;;;;;;5131755;27;20051;-79
2023/04/07 00:40:28;;;;;;;39.67;24.65;;;7.10;99.90;;;;;;5099894;27;20047;-79
2023/04/07 00:43:14;;;;;;;38.00;24.40;;;7.10;99.90;;;;;;5132558;27;20043;-81
2023/04/07 00:46:00;;;;;;;41.10;24.83;;;7.10;99.90;;;;;;5132698;27;20387;-80
2023/04/07 00:48:46;;;;;;;38.72;24.38;;;7.10;99.90;;;;;;5131589;27;20043;-80
2023/04/07 00:51:33;;;;;;;41.67;26.55;;;7.10;99.90;;;;;;5118894;27;20043;-78
2023/04/07 00:54:20;;;;;;;41.75;24.65;;;7.10;99.90;;;;;;5102095;27;20051;-80
2023/04/07 00:57:07;;;;;;;43.13;27.30;;;7.10;99.90;;;;;;5131203;27;20487;-80
2023/04/07 00:59:54;;;;;;;45.67;25.85;;;7.10;99.90;;;;;;5132084;27;20485;-80
2023/04/07 01:02:49;;;;;;;39.60;24.08;;;7.10;99.90;;;;;;5113912;27;20051;-78
2023/04/07 01:05:47;;;;;;;42.97;24.38;;;7.10;99.90;;;;;;5113190;27;20047;-80
2023/04/07 01:08:48;;;;;;;40.80;25.83;;;7.20;99.90;;;;;;5114005;27;20073;-78
2023/04/07 01:11:47;;;;;;;41.63;25.15;;;7.10;99.90;;;;;;5135154;27;20058;-79
2023/04/07 01:14:41;;;;;;;40.50;25.42;;;7.10;99.90;;;;;;5133601;27;20096;-78
2023/04/07 01:17:28;;;;;;;43.63;25.05;;;7.10;99.90;;;;;;5115165;27;20138;-79
2023/04/07 01:20:18;;;;;;;43.38;25.63;;;7.20;99.90;;;;;;5131370;27;20151;-80
2023/04/07 01:23:07;;;;;;;46.45;26.70;;;7.20;99.90;;;;;;5131880;27;20047;-80
2023/04/07 01:26:05;;;;;;;43.45;25.00;;;7.20;99.90;;;;;;5099201;27;20047;-77
2023/04/07 01:29:20;;;;;;;40.45;23.52;;;7.20;99.90;;;;;;5113022;27;20062;-78
2023/04/07 01:32:10;;;;;;;44.35;26.33;;;7.20;99.90;;;;;;5132954;27;20043;-79
2023/04/07 01:34:58;;;;;;;52.05;26.40;;;7.10;99.90;;;;;;5102626;27;20047;-80
2023/04/07 01:37:47;;;;;;;46.38;26.75;;;7.20;99.90;;;;;;5112017;27;20047;-78
2023/04/07 01:40:34;;;;;;;43.83;25.42;;;7.20;99.90;;;;;;5075111;28;20055;-78
2023/04/07 01:43:22;;;;;;;40.38;24.50;;;7.20;99.90;;;;;;5110489;28;20048;-81
2023/04/07 01:46:08;;;;;;;44.97;27.38;;;7.20;99.90;;;;;;5093189;28;20044;-79
2023/04/07 01:48:55;;;;;;;40.85;24.63;;;7.20;99.90;;;;;;5082419;28;20048;-80
2023/04/07 01:51:42;;;;;;;45.35;27.45;;;7.20;99.90;;;;;;5113119;28;20138;-78
2023/04/07 01:54:28;;;;;;;44.05;25.33;;;7.20;99.90;;;;;;5110785;28;20083;-78
2023/04/07 01:57:15;;;;;;;43.78;26.35;;;7.20;99.90;;;;;;5110415;28;20134;-79
2023/04/07 02:00:01;;;;;;;44.65;26.88;;;7.20;99.90;;;;;;5110800;28;20521;-78
2023/04/07 02:02:50;;;;;;;45.72;28.08;;;7.20;99.90;;;;;;5093262;28;20058;-79
2023/04/07 02:05:39;;;;;;;44.83;28.17;;;7.20;99.90;;;;;;5110484;28;20047;-80
2023/04/07 02:08:28;;;;;;;41.90;25.92;;;7.20;99.90;;;;;;5110137;28;20056;-80
2023/04/07 02:11:17;;;;;;;43.78;26.73;;;7.20;99.90;;;;;;5093514;28;20127;-79
2023/04/07 02:14:06;;;;;;;43.20;26.88;;;7.30;99.90;;;;;;5116238;28;20053;-79
2023/04/07 02:16:54;;;;;;;43.75;25.45;;;7.20;99.90;;;;;;5110473;28;20097;-79
2023/04/07 02:19:42;;;;;;;45.20;26.45;;;7.30;99.90;;;;;;5091959;28;20101;-82
2023/04/07 02:22:29;;;;;;;40.72;26.27;;;7.30;99.90;;;;;;5110055;28;20047;-81
2023/04/07 02:25:24;;;;;;;44.22;26.13;;;7.30;99.90;;;;;;5095196;28;20047;-79
2023/04/07 02:28:10;;;;;;;42.30;24.35;;;7.20;99.90;;;;;;5095948;28;20167;-79
2023/04/07 02:30:56;;;;;;;42.60;26.40;;;7.30;99.90;;;;;;5091625;28;20043;-80
2023/04/07 02:33:43;;;;;;;41.70;25.45;;;7.20;99.90;;;;;;5111082;28;20048;-80
2023/04/07 02:36:30;;;;;;;41.97;24.75;;;7.30;99.90;;;;;;5115556;28;20048;-81
2023/04/07 02:39:16;;;;;;;44.97;25.42;;;7.20;99.90;;;;;;5093079;27;20138;-79
2023/04/07 02:42:02;;;;;;;44.80;25.42;;;7.20;99.90;;;;;;5130771;28;20100;-79
2023/04/07 02:44:48;;;;;;;38.17;24.05;;;7.30;99.90;;;;;;5129460;28;20388;-78
2023/04/07 02:47:35;;;;;;;43.47;26.40;;;7.30;99.90;;;;;;5131249;28;20043;-82
2023/04/07 02:50:21;;;;;;;42.00;24.27;;;7.30;99.90;;;;;;5111523;28;20509;-78
2023/04/07 02:53:08;;;;;;;43.85;25.27;;;7.20;99.90;;;;;;5101220;28;20502;-80
2023/04/07 02:55:54;;;;;;;40.05;24.45;;;7.30;99.90;;;;;;5099300;28;20090;-79
2023/04/07 02:58:40;;;;;;;38.80;23.67;;;7.30;99.90;;;;;;5129830;28;21945;-78
2023/04/07 03:01:26;;;;;;;42.15;24.27;;;7.30;99.90;;;;;;5131055;28;20057;-80
2023/04/07 03:04:12;;;;;;;44.72;25.73;;;7.30;99.90;;;;;;5111469;28;20498;-80
2023/04/07 03:06:59;;;;;;;38.00;23.20;;;7.30;99.90;;;;;;5114913;28;20542;-79
2023/04/07 03:09:45;;;;;;;37.58;22.77;;;7.30;99.90;;;;;;5115631;28;20498;-81
2023/04/07 03:12:31;;;;;;;39.65;23.45;;;7.30;99.90;;;;;;5101185;28;20119;-82
2023/04/07 03:15:17;;;;;;;41.10;23.92;;;7.30;99.90;;;;;;5130383;28;20043;-82
2023/04/07 03:18:03;;;;;;;41.72;24.00;;;7.20;99.90;;;;;;5130171;28;20165;-80
2023/04/07 03:20:51;;;;;;;40.58;25.60;;;7.30;99.90;;;;;;5131160;27;20058;-81
2023/04/07 03:23:37;;;;;;;34.40;22.27;;;7.20;99.90;;;;;;5107867;27;20059;-82
2023/04/07 03:26:24;;;;;;;39.92;23.65;;;7.20;99.90;;;;;;5133980;27;20086;-81
2023/04/07 03:29:10;;;;;;;38.97;23.63;;;7.20;99.90;;;;;;5133149;27;20133;-79
2023/04/07 03:31:56;;;;;;;36.75;23.88;;;7.30;99.90;;;;;;5133334;27;20131;-82
2023/04/07 03:34:42;;;;;;;35.63;22.42;;;7.30;99.90;;;;;;5114736;27;20509;-78
2023/04/07 03:37:28;;;;;;;36.65;23.63;;;7.30;99.90;;;;;;5133639;27;20047;-79
2023/04/07 03:40:14;;;;;;;40.30;24.90;;;7.30;99.90;;;;;;5116769;27;20058;-78
2023/04/07 03:43:00;;;;;;;37.08;22.95;;;7.30;99.90;;;;;;5108369;27;20053;-78
2023/04/07 03:45:47;;;;;;;36.97;23.52;;;7.30;99.90;;;;;;5134271;27;20453;-79
2023/04/07 03:48:33;;;;;;;38.83;23.73;;;7.20;99.90;;;;;;5138924;27;20595;-80
2023/04/07 03:51:19;;;;;;;35.42;21.95;;;7.30;99.90;;;;;;5102841;27;20147;-82
2023/04/07 03:54:05;;;;;;;36.53;23.08;;;7.30;99.90;;;;;;5134214;27;20130;-81
2023/04/07 03:56:52;;;;;;;37.00;23.67;;;7.30;99.90;;;;;;5132827;27;20062;-81
2023/04/07 04:03:39;;;;;;;39.38;24.33;;;7.30;99.90;;;;;;5134618;27;20052;-81
2023/04/07 04:06:26;;;;;;;45.78;26.30;;;7.20;99.90;;;;;;5114486;27;20047;-80
2023/04/07 04:09:12;;;;;;;38.40;23.88;;;7.20;99.90;;;;;;5114999;27;20094;-79
2023/04/07 04:11:58;;;;;;;40.97;25.42;;;7.30;99.90;;;;;;5132491;27;20137;-80
2023/04/07 04:14:44;;;;;;;40.28;25.88;;;7.30;99.90;;;;;;5117498;27;20074;-80
2023/04/07 04:17:30;;;;;;;38.65;24.92;;;7.20;99.90;;;;;;5136897;27;20055;-78
2023/04/07 04:20:17;;;;;;;38.05;25.23;;;7.30;99.90;;;;;;5132242;27;20437;-79
2023/04/07 04:23:03;;;;;;;41.78;25.95;;;7.30;99.90;;;;;;5135153;27;20067;-80
2023/04/07 04:25:49;;;;;;;39.90;25.92;;;7.30;99.90;;;;;;5113584;27;20494;-79
2023/04/07 04:28:35;;;;;;;42.15;26.35;;;7.30;99.90;;;;;;5133716;27;20058;-79
2023/04/07 04:31:21;;;;;;;43.85;25.58;;;7.30;99.90;;;;;;5116427;27;20088;-79
2023/04/07 04:34:07;;;;;;;38.20;24.15;;;7.20;99.90;;;;;;5117106;27;20053;-80
2023/04/07 04:36:53;;;;;;;39.72;25.40;;;7.30;99.90;;;;;;5131526;27;20138;-80
2023/04/07 04:39:39;;;;;;;39.30;24.05;;;7.20;99.90;;;;;;5114524;27;20079;-82
2023/04/07 04:42:26;;;;;;;45.47;26.73;;;7.20;99.90;;;;;;5100708;27;20043;-79
2023/04/07 04:45:12;;;;;;;34.78;23.80;;;7.30;99.90;;;;;;5099964;27;20062;-79
2023/04/07 04:47:59;;;;;;;38.30;23.85;;;7.20;99.90;;;;;;5131664;27;20509;-81
2023/04/07 04:50:45;;;;;;;38.83;23.50;;;7.20;99.90;;;;;;5136000;27;20051;-80
2023/04/07 04:53:31;;;;;;;38.65;23.83;;;7.20;99.90;;;;;;5114178;27;20054;-80
2023/04/07 04:56:17;;;;;;;39.97;25.80;;;7.20;99.90;;;;;;5133001;27;20051;-81
2023/04/07 04:59:04;;;;;;;36.22;23.30;;;7.20;99.90;;;;;;5131798;27;20141;-80
2023/04/07 05:01:50;;;;;;;40.90;25.10;;;7.10;99.90;;;;;;5131747;27;20138;-82
2023/04/07 05:04:36;;;;;;;41.28;25.35;;;7.10;99.90;;;;;;5086846;27;20058;-79
2023/04/07 05:07:23;;;;;;;41.25;24.35;;;7.10;99.90;;;;;;5117153;27;20050;-81
2023/04/07 05:10:10;;;;;;;35.92;22.83;;;7.10;99.90;;;;;;5117410;27;20049;-79
2023/04/07 05:12:56;;;;;;;42.90;26.35;;;7.10;99.90;;;;;;5117373;27;20039;-81
2023/04/07 05:15:42;;;;;;;41.35;24.65;;;7.10;99.90;;;;;;5131434;27;20162;-80
2023/04/07 05:18:28;;;;;;;43.50;27.58;;;7.10;99.90;;;;;;5130533;27;20055;-81
2023/04/07 05:21:14;;;;;;;41.28;24.88;;;7.10;99.90;;;;;;5113222;27;20082;-82
2023/04/07 05:24:00;;;;;;;41.83;24.88;;;7.10;99.90;;;;;;5132303;27;20069;-79
2023/04/07 05:26:46;;;;;;;39.80;24.60;;;7.10;99.90;;;;;;5131294;27;20087;-81
2023/04/07 05:29:33;;;;;;;40.03;23.92;;;7.10;99.90;;;;;;5130683;27;20083;-81
2023/04/07 05:32:19;;;;;;;40.45;23.65;;;7.10;99.90;;;;;;5098363;27;20051;-80
2023/04/07 05:35:05;;;;;;;40.42;24.15;;;7.10;99.90;;;;;;5130354;27;20133;-81
2023/04/07 05:37:52;;;;;;;41.05;24.50;;;7.20;99.90;;;;;;5132197;27;20138;-80
2023/04/07 05:40:40;;;;;;;36.33;23.30;;;7.10;99.90;;;;;;5115160;27;20051;-82
2023/04/07 05:43:26;;;;;;;44.78;28.88;;;7.10;99.90;;;;;;5130518;27;20043;-81
2023/04/07 05:46:12;;;;;;;41.08;27.58;;;7.10;99.90;;;;;;5130253;27;20050;-81
2023/04/07 05:48:58;;;;;;;34.13;22.02;;;7.20;99.90;;;;;;5112313;27;20082;-81
2023/04/07 05:51:44;;;;;;;35.83;21.23;;;7.20;99.90;;;;;;5130104;27;20047;-81
2023/04/07 05:54:31;;;;;;;32.20;20.95;;;7.20;99.90;;;;;;5112476;27;20179;-80
2023/04/07 05:57:17;;;;;;;39.13;22.33;;;7.20;99.90;;;;;;5117386;27;20043;-81
2023/04/07 06:00:04;;;;;;;33.92;20.23;;;7.20;99.90;;;;;;5114723;27;20061;-80
2023/04/07 06:02:50;;;;;;;30.17;19.38;;;7.20;99.90;;;;;;5131001;27;20054;-81
2023/04/07 06:05:36;;;;;;;34.95;20.80;;;7.20;99.90;;;;;;5115870;27;20050;-80
2023/04/07 06:08:22;;;;;;;38.03;22.55;;;7.10;99.90;;;;;;5112593;27;20078;-80
2023/04/07 06:11:08;;;;;;;38.63;21.70;;;7.20;99.90;;;;;;5129683;27;20099;-81
2023/04/07 06:13:55;;;;;;;32.00;20.10;;;7.20;99.90;;;;;;5118647;27;20100;-79
2023/04/07 06:16:41;;;;;;;34.72;20.52;;;7.20;99.90;;;;;;5115921;27;20109;-80
2023/04/07 06:19:27;;;;;;;31.63;19.80;;;7.20;99.90;;;;;;5130817;27;20047;-82
2023/04/07 06:22:13;;;;;;;34.17;20.30;;;7.20;99.90;;;;;;5115865;27;20134;-81
2023/04/07 06:24:59;;;;;;;33.72;21.08;;;7.30;99.90;;;;;;5130749;27;20095;-80
2023/04/07 06:27:45;;;;;;;35.97;21.02;;;7.30;99.90;;;;;;5132233;27;20040;-81
2023/04/07 06:30:32;;;;;;;29.92;19.83;;;7.30;99.90;;;;;;5130966;27;20085;-82
2023/04/07 06:33:22;;;;;;;30.00;18.90;;;7.40;99.90;;;;;;5131108;27;20074;-81
2023/04/07 06:36:09;;;;;;;29.48;17.90;;;7.40;99.90;;;;;;5130763;27;20551;-82
2023/04/07 06:38:55;;;;;;;29.02;18.42;;;7.40;99.90;;;;;;5130029;27;20058;-81
2023/04/07 06:41:42;;;;;;;29.05;19.13;;;7.40;99.90;;;;;;5115027;28;20134;-80
2023/04/07 06:44:28;;;;;;;27.88;18.08;;;7.40;99.90;;;;;;5132175;28;20207;-80
2023/04/07 06:47:14;;;;;;;30.67;18.15;;;7.50;99.90;;;;;;5132840;28;20083;-81
2023/04/07 06:50:00;;;;;;;38.70;22.70;;;7.50;99.90;;;;;;5130948;28;20051;-80
2023/04/07 06:52:47;;;;;;;39.97;24.83;;;7.50;99.90;;;;;;5130502;28;20043;-80
2023/04/07 06:55:33;;;;;;;31.17;19.17;;;7.60;99.90;;;;;;5131510;27;20133;-80
2023/04/07 06:58:19;;;;;;;29.27;17.75;;;7.60;99.90;;;;;;5135049;27;20043;-81
2023/04/07 07:01:06;;;;;;;27.40;17.98;;;7.60;99.90;;;;;;5134701;27;20043;-81
2023/04/07 07:03:52;;;;;;;26.70;17.73;;;7.70;99.90;;;;;;5105835;27;20089;-80
2023/04/07 07:06:38;;;;;;;29.63;17.85;;;7.70;99.90;;;;;;5133607;27;20043;-80
2023/04/07 07:09:26;;;;;;;28.05;17.52;;;7.70;99.90;;;;;;5133981;27;20054;-80
2023/04/07 07:12:14;;;;;;;30.00;19.25;;;7.70;99.90;;;;;;5115514;27;20054;-81
2023/04/07 07:15:00;;;;;;;26.00;15.68;;;7.70;99.90;;;;;;5133873;27;20441;-81
2023/04/07 07:17:46;;;;;;;28.05;16.55;;;7.70;99.90;;;;;;5134251;27;20479;-79
2023/04/07 07:20:32;;;;;;;27.17;16.50;;;7.70;99.90;;;;;;5122485;27;20422;-78
2023/04/07 07:23:18;;;;;;;30.73;19.10;;;7.70;99.90;;;;;;5134267;27;20051;-81
2023/04/07 07:26:04;;;;;;;31.02;19.10;;;7.80;99.90;;;;;;5132525;27;20099;-81
2023/04/07 07:28:52;;;;;;;38.65;21.02;;;7.80;99.90;;;;;;5115944;27;20054;-78
2023/04/07 07:31:38;;;;;;;27.58;17.42;;;7.80;99.90;;;;;;5116501;27;20473;-81
2023/04/07 07:34:24;;;;;;;29.02;17.48;;;7.80;99.90;;;;;;5134331;27;20050;-80
2023/04/07 07:37:11;;;;;;;26.95;16.98;;;7.90;99.90;;;;;;5134509;27;20078;-81
2023/04/07 07:39:57;;;;;;;27.00;16.70;;;7.90;99.90;;;;;;5115059;27;20090;-81
2023/04/07 07:42:45;;;;;;;27.65;17.65;;;8.00;99.90;;;;;;5117383;27;20058;-79
2023/04/07 07:45:32;;;;;;;25.58;15.73;;;8.00;99.90;;;;;;5138486;27;20051;-81
2023/04/07 07:48:18;;;;;;;24.83;16.17;;;8.00;99.90;;;;;;5116205;27;20073;-81
2023/04/07 07:51:04;;;;;;;25.77;16.55;;;8.10;99.90;;;;;;5133678;27;20137;-81
2023/04/07 07:53:51;;;;;;;24.85;16.63;;;8.10;99.90;;;;;;5120550;27;20539;-79
2023/04/07 07:56:37;;;;;;;27.10;16.63;;;8.20;99.90;;;;;;5116114;27;20043;-78
2023/04/07 07:59:24;;;;;;;27.63;17.48;;;8.30;99.90;;;;;;5137856;27;20700;-80
2023/04/07 08:02:10;;;;;;;22.13;15.40;;;8.40;99.90;;;;;;5132624;27;20146;-79
2023/04/07 08:04:57;;;;;;;29.13;17.85;;;8.50;99.90;;;;;;5133964;27;20046;-79
2023/04/07 08:07:43;;;;;;;25.42;17.30;;;8.60;99.90;;;;;;5133065;27;20054;-79
2023/04/07 08:10:29;;;;;;;23.48;15.05;;;8.70;99.90;;;;;;5132506;27;20082;-79
2023/04/07 08:13:15;;;;;;;23.75;14.30;;;8.80;99.90;;;;;;5133126;27;20448;-79
2023/04/07 08:16:01;;;;;;;24.55;16.00;;;8.80;99.90;;;;;;5132863;27;20062;-79
2023/04/07 08:18:47;;;;;;;24.05;14.98;;;9.00;99.90;;;;;;5137108;27;20043;-79
2023/04/07 08:21:33;;;;;;;21.75;13.30;;;9.00;99.90;;;;;;5100768;27;20054;-80
2023/04/07 08:24:19;;;;;;;18.13;12.57;;;9.00;99.90;;;;;;5133249;27;20151;-80
2023/04/07 08:27:06;;;;;;;21.05;13.60;;;9.10;99.90;;;;;;5100909;27;20051;-80
2023/04/07 08:30:03;;;;;;;22.70;14.30;;;9.10;99.90;;;;;;5132253;27;20051;-79
2023/04/07 08:32:50;;;;;;;17.77;12.00;;;9.10;99.90;;;;;;5132073;27;20051;-80
2023/04/07 08:35:36;;;;;;;21.67;14.10;;;9.20;99.90;;;;;;5117996;27;20055;-79
2023/04/07 08:38:22;;;;;;;22.00;14.02;;;9.10;99.90;;;;;;5119525;27;20062;-78
2023/04/07 08:41:12;;;;;;;25.42;15.38;;;9.10;99.90;;;;;;5131836;27;20047;-79
2023/04/07 08:44:01;;;;;;;26.17;17.05;;;9.20;99.90;;;;;;5113436;27;20455;-80
2023/04/07 08:46:49;;;;;;;26.08;16.85;;;9.20;99.90;;;;;;5132522;27;20043;-79
2023/04/07 08:49:37;;;;;;;22.75;15.27;;;9.20;99.90;;;;;;5132130;27;20073;-79
2023/04/07 08:52:33;;;;;;;22.63;14.60;;;9.20;99.90;;;;;;5116696;27;20179;-78
2023/04/07 08:55:19;;;;;;;23.02;14.95;;;9.30;99.90;;;;;;5139030;27;20047;-80
2023/04/07 08:58:11;;;;;;;22.20;14.60;;;9.30;99.90;;;;;;5119454;27;20047;-79
2023/04/07 09:00:57;;;;;;;24.00;15.75;;;9.40;99.90;;;;;;5132839;27;20055;-79
2023/04/07 09:03:44;;;;;;;25.38;16.73;;;9.50;99.90;;;;;;5131539;27;20122;-79
2023/04/07 09:06:31;;;;;;;25.58;17.05;;;9.70;99.90;;;;;;5116372;27;20076;-81
2023/04/07 09:09:17;;;;;;;27.33;17.65;;;9.80;99.90;;;;;;5131599;27;20452;-81
2023/04/07 09:12:03;;;;;;;29.45;17.08;;;9.90;99.90;;;;;;5129473;27;20046;-81
2023/04/07 09:14:53;;;;;;;25.10;17.17;;;10.00;99.90;;;;;;5155128;27;20189;-80
2023/04/07 09:17:39;;;;;;;25.92;18.10;;;10.20;99.90;;;;;;5151532;27;20058;-80
2023/04/07 09:20:25;;;;;;;24.73;17.27;;;10.40;99.90;;;;;;5132785;27;20058;-79
2023/04/07 09:23:28;;;;;;;23.95;17.52;;;10.60;99.90;;;;;;5116634;27;20401;-79
2023/04/07 09:26:17;;;;;;;27.88;16.95;;;10.90;99.90;;;;;;5151992;27;20354;-80
2023/04/07 09:29:03;;;;;;;24.17;16.50;;;11.00;99.90;;;;;;5151626;27;20051;-80
2023/04/07 09:31:51;;;;;;;23.55;15.52;;;11.30;99.90;;;;;;5150836;27;20050;-78
2023/04/07 09:34:39;;;;;;;25.30;16.83;;;11.30;99.90;;;;;;5152786;27;20061;-80
2023/04/07 09:37:25;;;;;;;23.30;16.40;;;11.40;99.90;;;;;;5154819;27;20121;-80
2023/04/07 09:40:24;;;;;;;23.55;16.38;;;11.40;99.90;;;;;;5154299;27;20055;-80
2023/04/07 09:43:17;;;;;;;23.05;15.15;;;11.50;99.90;;;;;;5151897;27;20088;-79
2023/04/07 09:46:12;;;;;;;20.83;14.85;;;11.60;99.90;;;;;;5115974;27;20080;-80
2023/04/07 09:49:06;;;;;;;27.73;16.87;;;11.70;99.90;;;;;;5131400;27;20051;-81
2023/04/07 09:51:59;;;;;;;24.08;15.90;;;11.60;99.90;;;;;;5151921;27;20055;-81
2023/04/07 09:54:46;;;;;;;19.77;14.82;;;11.60;99.90;;;;;;5152273;27;20039;-80
2023/04/07 09:57:38;;;;;;;22.58;15.45;;;11.50;99.90;;;;;;5151296;27;20405;-79
2023/04/07 10:00:25;;;;;;;22.55;15.25;;;11.70;99.90;;;;;;5139394;27;20065;-81
2023/04/07 10:03:11;;;;;;;23.27;15.60;;;11.80;99.90;;;;;;5133113;27;20084;-80
2023/04/07 10:05:59;;;;;;;22.40;15.05;;;11.80;99.90;;;;;;5132623;27;20089;-78
2023/04/07 10:08:45;;;;;;;23.67;14.93;;;12.00;99.90;;;;;;5118397;27;20179;-78
2023/04/07 10:11:32;;;;;;;21.42;15.32;;;11.80;99.90;;;;;;5150623;27;20082;-79
2023/04/07 10:14:25;;;;;;;21.15;13.85;;;12.00;99.90;;;;;;5118247;27;20061;-79
2023/04/07 10:17:17;;;;;;;20.08;13.38;;;12.00;99.90;;;;;;5150776;27;20133;-79
2023/04/07 10:20:06;;;;;;;20.30;12.00;;;12.10;99.90;;;;;;5139130;27;20414;-82
2023/04/07 10:22:54;;;;;;;17.88;12.75;;;12.20;99.90;;;;;;5122179;27;20047;-79
2023/04/07 10:25:41;;;;;;;21.05;12.98;;;12.20;99.90;;;;;;5150964;27;20102;-79
2023/04/07 10:28:29;;;;;;;15.75;11.55;;;12.40;99.90;;;;;;5151387;27;20047;-77
2023/04/07 10:31:16;;;;;;;15.90;11.80;;;12.60;99.90;;;;;;5149580;27;20515;-78
2023/04/07 10:34:02;;;;;;;16.40;11.07;;;12.70;99.90;;;;;;5150593;27;20072;-78
2023/04/07 10:37:10;;;;;;;16.52;11.23;;;13.00;99.90;;;;;;5118858;27;20556;-78
2023/04/07 10:40:17;;;;;;;16.65;10.88;;;12.70;99.90;;;;;;5150726;27;20059;-80
2023/04/07 10:43:10;;;;;;;16.98;11.00;;;12.40;99.90;;;;;;5153136;27;20049;-79
2023/04/07 10:45:58;;;;;;;17.15;11.15;;;12.10;99.90;;;;;;5136420;27;20110;-78
2023/04/07 10:49:08;;;;;;;16.83;11.73;;;11.90;99.90;;;;;;5158171;27;20134;-79
2023/04/07 10:52:13;;;;;;;22.80;10.88;;;11.70;99.90;;;;;;5133142;27;20089;-79
2023/04/07 10:55:29;;;;;;;18.55;12.10;;;11.70;99.90;;;;;;5152342;27;20085;-79
2023/04/07 10:58:32;;;;;;;16.05;11.68;;;11.70;99.90;;;;;;5150463;27;20053;-81
2023/04/07 11:01:18;;;;;;;15.00;10.00;;;11.60;99.90;;;;;;5117760;27;20046;-80
2023/04/07 11:04:06;;;;;;;14.80;9.93;;;11.70;99.90;;;;;;5149532;27;20051;-80
2023/04/07 11:06:52;;;;;;;15.82;9.73;;;11.60;99.90;;;;;;5130933;27;20042;-80
2023/04/07 11:09:39;;;;;;;12.45;8.77;;;11.60;99.90;;;;;;5151110;27;20046;-79
2023/04/07 11:12:25;;;;;;;14.43;9.27;;;11.60;99.90;;;;;;5150124;27;20078;-80
2023/04/07 11:15:21;;;;;;;13.10;9.32;;;11.60;99.90;;;;;;5130840;27;20050;-80
2023/04/07 11:18:19;;;;;;;14.27;10.18;;;11.90;99.90;;;;;;5154454;27;20129;-81
2023/04/07 11:21:06;;;;;;;14.73;10.02;;;12.30;99.90;;;;;;5133539;27;20062;-82
2023/04/07 11:23:52;;;;;;;18.83;11.05;;;12.50;99.90;;;;;;5132077;27;20050;-82
2023/04/07 11:26:40;;;;;;;18.52;10.15;;;12.80;99.90;;;;;;5136171;27;20552;-81
2023/04/07 11:29:33;;;;;;;14.68;9.68;;;13.00;99.90;;;;;;5149485;27;20070;-81
2023/04/07 11:32:24;;;;;;;18.00;11.07;;;12.90;99.90;;;;;;5148987;27;20596;-80
2023/04/07 11:35:10;;;;;;;16.25;10.80;;;12.90;99.90;;;;;;5149797;27;20049;-79
2023/04/07 11:37:58;;;;;;;14.60;10.18;;;12.80;99.90;;;;;;5150539;27;20133;-81
2023/04/07 11:40:45;;;;;;;15.52;10.13;;;12.70;99.90;;;;;;5149731;27;20051;-80
2023/04/07 11:43:31;;;;;;;13.05;8.80;;;12.80;99.90;;;;;;5135353;27;20480;-82
2023/04/07 11:46:18;;;;;;;15.70;9.73;;;12.80;99.90;;;;;;5154302;27;20049;-79
2023/04/07 11:49:09;;;;;;;11.77;8.55;;;12.90;99.90;;;;;;5143088;27;20058;-81
2023/04/07 11:52:06;;;;;;;12.70;9.27;;;12.90;99.90;;;;;;5122072;27;20493;-81
2023/04/07 11:54:52;;;;;;;12.27;8.60;;;13.10;99.90;;;;;;5153946;27;20050;-81
2023/04/07 11:57:38;;;;;;;13.68;8.98;;;13.30;99.90;;;;;;5140420;27;20072;-81
2023/04/07 12:00:24;;;;;;;13.45;8.60;;;13.40;99.90;;;;;;5138502;27;20516;-80
2023/04/07 12:03:14;;;;;;;13.68;9.70;;;13.90;99.90;;;;;;5158135;27;20501;-80
2023/04/07 12:06:02;;;;;;;11.95;7.82;;;14.20;99.90;;;;;;5155504;27;20054;-84
2023/04/07 12:08:48;;;;;;;13.02;8.75;;;14.40;99.90;;;;;;5156922;27;20114;-83
2023/04/07 12:11:36;;;;;;;13.40;9.10;;;14.40;99.90;;;;;;5155330;27;20050;-80
2023/04/07 12:14:23;;;;;;;14.95;9.75;;;14.40;99.90;;;;;;5121091;27;20055;-82
2023/04/07 12:17:22;;;;;;;12.25;8.75;;;14.40;99.90;;;;;;5134659;27;20050;-81
2023/04/07 12:20:09;;;;;;;11.77;8.70;;;14.60;99.90;;;;;;5153355;27;20046;-84
2023/04/07 12:22:56;;;;;;;15.85;8.85;;;14.70;99.90;;;;;;5160539;27;20043;-82
2023/04/07 12:25:42;;;;;;;12.05;8.40;;;14.80;99.90;;;;;;5134706;27;20059;-83
2023/04/07 12:28:28;;;;;;;13.93;9.57;;;14.70;99.90;;;;;;5133839;27;20528;-81
2023/04/07 12:31:14;;;;;;;15.32;8.80;;;14.70;99.90;;;;;;5133797;27;20096;-80
2023/04/07 12:34:01;;;;;;;11.10;8.23;;;14.80;99.90;;;;;;5153386;27;20138;-81
2023/04/07 12:36:47;;;;;;;11.20;8.30;;;15.00;99.90;;;;;;5152387;27;20038;-82
2023/04/07 12:39:33;;;;;;;12.63;8.52;;;15.10;99.90;;;;;;5151481;27;20077;-80
2023/04/07 12:42:19;;;;;;;10.77;7.90;;;15.20;99.90;;;;;;5158344;27;20050;-79
2023/04/07 12:45:06;;;;;;;13.13;7.75;;;15.30;99.10;;;;;;5152598;27;20387;-82
2023/04/07 12:47:52;;;;;;;10.27;7.35;;;15.80;98.60;;;;;;5151392;27;20122;-79
2023/04/07 12:50:39;;;;;;;12.15;9.07;;;16.50;97.80;;;;;;5136225;27;20051;-79
2023/04/07 12:53:26;;;;;;;10.70;8.10;;;16.70;96.70;;;;;;5152184;27;20481;-80
2023/04/07 12:56:12;;;;;;;10.73;7.45;;;16.50;96.30;;;;;;5133520;27;20521;-81
2023/04/07 12:58:58;;;;;;;11.27;7.85;;;16.30;95.60;;;;;;5136746;27;20046;-79
2023/04/07 13:01:45;;;;;;;12.73;8.20;;;16.20;95.50;;;;;;5152550;27;20513;-78
2023/04/07 13:04:31;;;;;;;14.40;9.25;;;16.30;95.90;;;;;;5152010;27;20046;-81
2023/04/07 13:07:17;;;;;;;11.90;7.78;;;16.60;95.80;;;;;;5152224;27;20103;-83
2023/04/07 13:10:06;;;;;;;11.18;7.75;;;17.70;95.30;;;;;;5154337;27;20050;-82
2023/04/07 13:12:52;;;;;;;11.38;7.35;;;19.40;93.30;;;;;;5152822;27;20054;-79
2023/04/07 13:15:38;;;;;;;13.02;7.95;;;19.40;91.30;;;;;;5132795;27;20050;-81
2023/04/07 13:18:24;;;;;;;10.20;7.50;;;20.30;89.30;;;;;;5151592;27;20039;-83
2023/04/07 13:21:10;;;;;;;10.05;7.60;;;21.70;85.40;;;;;;5151245;27;20431;-83
2023/04/07 13:23:57;;;;;;;11.18;7.13;;;22.10;81.00;;;;;;5133140;27;20034;-81
2023/04/07 13:26:43;;;;;;;11.25;7.63;;;22.30;76.20;;;;;;5151618;27;20054;-84
2023/04/07 13:29:29;;;;;;;9.98;6.88;;;22.70;73.10;;;;;;5153967;27;20074;-80
2023/04/07 13:32:15;;;;;;;10.18;7.40;;;23.60;72.30;;;;;;5139348;27;20054;-82
2023/04/07 13:35:02;;;;;;;11.95;7.47;;;23.30;66.80;;;;;;5151302;27;20500;-81
2023/04/07 13:37:48;;;;;;;10.77;6.90;;;23.40;68.10;;;;;;5132490;27;20043;-80
2023/04/07 13:40:34;;;;;;;10.07;7.05;;;22.80;66.30;;;;;;5151515;27;20058;-80
2023/04/07 13:43:20;;;;;;;10.68;6.53;;;22.20;68.60;;;;;;5151020;27;20050;-80
2023/04/07 13:46:06;;;;;;;9.35;6.63;;;22.80;68.90;;;;;;5152851;27;20047;-83
2023/04/07 13:48:52;;;;;;;9.75;7.07;;;24.20;67.40;;;;;;5156595;27;20134;-82
2023/04/07 13:51:38;;;;;;;9.57;7.20;;;24.70;63.50;;;;;;5135927;27;20047;-80
2023/04/07 13:54:24;;;;;;;8.93;6.65;;;25.00;62.00;;;;;;5150857;27;20050;-80
2023/04/07 13:57:11;;;;;;;11.73;8.30;;;25.70;58.90;;;;;;5151045;27;20047;-83
2023/04/07 13:59:57;;;;;;;13.18;7.50;;;25.60;57.20;;;;;;5132690;27;20051;-81
2023/04/07 14:02:44;;;;;;;13.60;6.25;;;25.20;55.90;;;;;;5136364;27;20058;-83
2023/04/07 14:05:30;;;;;;;9.95;7.18;;;24.80;55.30;;;;;;5149818;27;20043;-82
2023/04/07 14:08:17;;;;;;;9.98;7.47;;;23.60;56.10;;;;;;5150649;27;20046;-84
2023/04/07 14:11:03;;;;;;;9.50;7.50;;;22.30;58.10;;;;;;5159825;27;20095;-82
2023/04/07 14:13:51;;;;;;;12.48;7.43;;;20.90;59.10;;;;;;5134884;27;20043;-83
2023/04/07 14:16:37;;;;;;;17.92;8.10;;;19.70;62.10;;;;;;5136930;27;20138;-80
2023/04/07 14:19:23;;;;;;;11.32;7.80;;;18.90;66.20;;;;;;5150092;27;20055;-83
2023/04/07 14:22:10;;;;;;;11.60;7.30;;;18.50;70.30;;;;;;5150176;27;20054;-80
2023/04/07 14:24:56;;;;;;;10.80;8.00;;;18.10;73.80;;;;;;5150746;27;20086;-82